sensor_id;sensor_type;location;lat;lon;timestamp;pressure;altitude;pressure_sealevel;temperature;humidity
46722;BME280;32455;43.430;23.136;2023-03-15T00:02:39;97025.34;;;3.99;89.64
46722;BME280;32455;43.430;23.136;2023-03-15T00:05:26;97028.59;;;4.01;88.41
46722;BME280;32455;43.430;23.136;2023-03-15T00:08:12;97020.44;;;3.96;88.99
46722;BME280;32455;43.430;23.136;2023-03-15T00:10:59;97025.50;;;4.11;88.84
46722;BME280;32455;43.430;23.136;2023-03-15T00:13:45;97021.41;;;4.15;87.61
46722;BME280;32455;43.430;23.136;2023-03-15T00:16:30;97022.06;;;4.04;86.67
46722;BME280;32455;43.430;23.136;2023-03-15T00:19:17;97022.44;;;4.14;87.86
46722;BME280;32455;43.430;23.136;2023-03-15T00:22:03;97015.84;;;4.30;87.34
46722;BME280;32455;43.430;23.136;2023-03-15T00:24:48;97012.75;;;4.33;86.90
46722;BME280;32455;43.430;23.136;2023-03-15T00:27:33;97024.91;;;4.09;86.64
46722;BME280;32455;43.430;23.136;2023-03-15T00:30:18;97021.88;;;3.98;87.98
46722;BME280;32455;43.430;23.136;2023-03-15T00:33:04;97017.78;;;3.89;88.41
46722;BME280;32455;43.430;23.136;2023-03-15T00:35:49;97015.91;;;4.10;87.48
46722;BME280;32455;43.430;23.136;2023-03-15T00:38:39;97009.00;;;3.89;89.35
46722;BME280;32455;43.430;23.136;2023-03-15T00:41:24;97003.69;;;3.89;89.31
46722;BME280;32455;43.430;23.136;2023-03-15T00:44:09;97007.63;;;3.66;91.23
46722;BME280;32455;43.430;23.136;2023-03-15T00:46:54;96987.84;;;3.49;93.59
46722;BME280;32455;43.430;23.136;2023-03-15T00:49:40;96990.06;;;3.65;91.56
46722;BME280;32455;43.430;23.136;2023-03-15T00:52:26;96981.06;;;3.60;91.78
46722;BME280;32455;43.430;23.136;2023-03-15T00:55:15;96987.59;;;3.70;93.88
46722;BME280;32455;43.430;23.136;2023-03-15T00:58:00;96976.94;;;3.84;91.81
46722;BME280;32455;43.430;23.136;2023-03-15T01:00:46;96988.56;;;3.89;92.18
46722;BME280;32455;43.430;23.136;2023-03-15T01:03:31;96977.97;;;3.83;90.88
46722;BME280;32455;43.430;23.136;2023-03-15T01:06:19;96975.53;;;3.74;92.74
46722;BME280;32455;43.430;23.136;2023-03-15T01:09:04;96972.13;;;3.47;95.07
46722;BME280;32455;43.430;23.136;2023-03-15T01:11:50;96966.00;;;3.34;96.24
46722;BME280;32455;43.430;23.136;2023-03-15T01:14:35;96963.91;;;3.69;94.07
46722;BME280;32455;43.430;23.136;2023-03-15T01:17:23;96970.72;;;3.32;95.53
46722;BME280;32455;43.430;23.136;2023-03-15T01:20:13;96951.53;;;3.03;97.20
46722;BME280;32455;43.430;23.136;2023-03-15T01:22:58;96965.03;;;3.21;96.82
46722;BME280;32455;43.430;23.136;2023-03-15T01:25:43;96973.56;;;3.37;96.06
46722;BME280;32455;43.430;23.136;2023-03-15T01:28:28;96952.13;;;3.25;95.13
46722;BME280;32455;43.430;23.136;2023-03-15T01:31:22;96979.91;;;3.16;96.18
46722;BME280;32455;43.430;23.136;2023-03-15T01:34:08;96953.59;;;3.14;95.08
46722;BME280;32455;43.430;23.136;2023-03-15T01:36:54;96977.47;;;3.28;95.35
46722;BME280;32455;43.430;23.136;2023-03-15T01:39:40;96958.09;;;3.14;96.15
46722;BME280;32455;43.430;23.136;2023-03-15T01:42:25;96966.84;;;3.08;97.91
46722;BME280;32455;43.430;23.136;2023-03-15T01:52:06;96962.16;;;3.23;97.07
46722;BME280;32455;43.430;23.136;2023-03-15T01:55:11;96961.53;;;3.21;97.58
46722;BME280;32455;43.430;23.136;2023-03-15T01:57:59;96949.22;;;3.60;94.08
46722;BME280;32455;43.430;23.136;2023-03-15T02:00:47;96964.34;;;3.53;94.63
46722;BME280;32455;43.430;23.136;2023-03-15T02:03:35;96953.13;;;4.09;91.13
46722;BME280;32455;43.430;23.136;2023-03-15T02:06:22;96953.69;;;3.66;91.84
46722;BME280;32455;43.430;23.136;2023-03-15T02:09:09;96957.16;;;3.73;91.35
46722;BME280;32455;43.430;23.136;2023-03-15T02:11:59;96947.19;;;3.55;89.45
46722;BME280;32455;43.430;23.136;2023-03-15T02:14:45;96945.50;;;3.74;88.84
46722;BME280;32455;43.430;23.136;2023-03-15T02:17:40;96954.16;;;3.56;87.84
46722;BME280;32455;43.430;23.136;2023-03-15T02:23:35;96950.56;;;3.89;86.86
46722;BME280;32455;43.430;23.136;2023-03-15T02:26:31;96941.72;;;4.01;86.38
46722;BME280;32455;43.430;23.136;2023-03-15T02:29:21;96937.13;;;3.64;87.44
46722;BME280;32455;43.430;23.136;2023-03-15T02:32:07;96953.22;;;3.89;85.87
46722;BME280;32455;43.430;23.136;2023-03-15T02:34:52;96952.03;;;3.71;85.35
46722;BME280;32455;43.430;23.136;2023-03-15T02:37:37;96939.44;;;3.60;86.71
46722;BME280;32455;43.430;23.136;2023-03-15T02:40:26;96956.41;;;3.46;87.95
46722;BME280;32455;43.430;23.136;2023-03-15T02:43:18;96948.84;;;3.30;88.04
46722;BME280;32455;43.430;23.136;2023-03-15T02:46:05;96940.88;;;3.56;86.33
46722;BME280;32455;43.430;23.136;2023-03-15T02:48:52;96947.34;;;3.73;87.09
46722;BME280;32455;43.430;23.136;2023-03-15T02:51:38;96925.56;;;3.45;86.74
46722;BME280;32455;43.430;23.136;2023-03-15T02:54:23;96946.56;;;4.18;81.86
46722;BME280;32455;43.430;23.136;2023-03-15T02:57:13;96948.97;;;4.26;80.04
46722;BME280;32455;43.430;23.136;2023-03-15T02:59:59;96944.06;;;4.23;80.96
46722;BME280;32455;43.430;23.136;2023-03-15T03:02:51;96933.50;;;4.10;81.26
46722;BME280;32455;43.430;23.136;2023-03-15T03:05:36;96929.38;;;4.20;81.57
46722;BME280;32455;43.430;23.136;2023-03-15T03:08:21;96928.69;;;4.32;79.74
46722;BME280;32455;43.430;23.136;2023-03-15T03:11:07;96936.69;;;4.25;81.03
46722;BME280;32455;43.430;23.136;2023-03-15T03:13:53;96945.97;;;4.47;78.27
46722;BME280;32455;43.430;23.136;2023-03-15T03:16:39;96941.31;;;4.36;80.60
46722;BME280;32455;43.430;23.136;2023-03-15T03:19:26;96935.09;;;4.24;80.67
46722;BME280;32455;43.430;23.136;2023-03-15T03:22:12;96935.16;;;4.42;78.58
46722;BME280;32455;43.430;23.136;2023-03-15T03:24:58;96931.34;;;3.87;83.35
46722;BME280;32455;43.430;23.136;2023-03-15T03:27:43;96918.81;;;3.56;84.69
46722;BME280;32455;43.430;23.136;2023-03-15T03:30:28;96927.81;;;3.99;82.14
46722;BME280;32455;43.430;23.136;2023-03-15T03:33:15;96930.16;;;3.76;83.51
46722;BME280;32455;43.430;23.136;2023-03-15T03:36:00;96921.13;;;3.84;82.91
46722;BME280;32455;43.430;23.136;2023-03-15T03:38:48;96938.47;;;3.35;86.19
46722;BME280;32455;43.430;23.136;2023-03-15T03:41:33;96935.78;;;3.48;85.59
46722;BME280;32455;43.430;23.136;2023-03-15T03:44:18;96920.44;;;3.57;85.13
46722;BME280;32455;43.430;23.136;2023-03-15T03:47:04;96916.00;;;3.89;81.64
46722;BME280;32455;43.430;23.136;2023-03-15T03:49:49;96914.31;;;3.56;82.39
46722;BME280;32455;43.430;23.136;2023-03-15T03:52:34;96922.19;;;3.76;82.47
46722;BME280;32455;43.430;23.136;2023-03-15T03:55:19;96920.44;;;3.50;83.43
46722;BME280;32455;43.430;23.136;2023-03-15T03:58:10;96912.56;;;3.10;85.12
46722;BME280;32455;43.430;23.136;2023-03-15T04:00:55;96898.69;;;3.01;85.75
46722;BME280;32455;43.430;23.136;2023-03-15T04:03:41;96906.22;;;3.11;86.27
46722;BME280;32455;43.430;23.136;2023-03-15T04:06:26;96895.63;;;2.98;87.55
46722;BME280;32455;43.430;23.136;2023-03-15T04:09:13;96907.66;;;2.41;93.42
46722;BME280;32455;43.430;23.136;2023-03-15T04:11:58;96895.63;;;2.38;93.11
46722;BME280;32455;43.430;23.136;2023-03-15T04:14:44;96907.47;;;2.56;93.04
46722;BME280;32455;43.430;23.136;2023-03-15T04:17:29;96906.84;;;2.27;94.31
46722;BME280;32455;43.430;23.136;2023-03-15T04:20:15;96909.91;;;2.37;94.23
46722;BME280;32455;43.430;23.136;2023-03-15T04:23:01;96906.06;;;2.53;92.19
46722;BME280;32455;43.430;23.136;2023-03-15T04:25:50;96917.19;;;2.15;93.84
46722;BME280;32455;43.430;23.136;2023-03-15T04:28:35;96910.63;;;2.05;94.26
46722;BME280;32455;43.430;23.136;2023-03-15T04:31:22;96910.25;;;2.08;97.11
46722;BME280;32455;43.430;23.136;2023-03-15T04:34:10;96905.56;;;2.16;95.02
46722;BME280;32455;43.430;23.136;2023-03-15T04:36:56;96898.66;;;2.35;94.67
46722;BME280;32455;43.430;23.136;2023-03-15T04:39:42;96885.91;;;1.78;96.33
46722;BME280;32455;43.430;23.136;2023-03-15T04:42:28;96906.75;;;1.94;95.05
46722;BME280;32455;43.430;23.136;2023-03-15T04:45:14;96907.56;;;1.94;95.27
46722;BME280;32455;43.430;23.136;2023-03-15T04:48:00;96904.16;;;2.20;94.71
46722;BME280;32455;43.430;23.136;2023-03-15T04:50:45;96903.94;;;2.22;94.41
46722;BME280;32455;43.430;23.136;2023-03-15T04:53:30;96903.50;;;1.98;95.46
46722;BME280;32455;43.430;23.136;2023-03-15T04:56:15;96914.47;;;1.95;96.30
46722;BME280;32455;43.430;23.136;2023-03-15T04:59:00;96915.28;;;1.96;97.07
46722;BME280;32455;43.430;23.136;2023-03-15T05:01:46;96902.78;;;2.51;93.93
46722;BME280;32455;43.430;23.136;2023-03-15T05:04:32;96871.75;;;2.85;94.43
46722;BME280;32455;43.430;23.136;2023-03-15T05:07:17;96871.09;;;3.22;93.55
46722;BME280;32455;43.430;23.136;2023-03-15T05:10:05;96854.91;;;3.37;90.45
46722;BME280;32455;43.430;23.136;2023-03-15T05:12:50;96854.34;;;3.22;93.37
46722;BME280;32455;43.430;23.136;2023-03-15T05:15:36;96873.13;;;3.20;95.64
46722;BME280;32455;43.430;23.136;2023-03-15T05:18:23;96882.50;;;3.30;93.78
46722;BME280;32455;43.430;23.136;2023-03-15T05:21:09;96883.06;;;3.45;94.69
46722;BME280;32455;43.430;23.136;2023-03-15T05:23:54;96882.97;;;3.71;93.26
46722;BME280;32455;43.430;23.136;2023-03-15T05:26:41;96880.34;;;3.65;93.19
46722;BME280;32455;43.430;23.136;2023-03-15T05:29:26;96867.09;;;3.58;94.16
46722;BME280;32455;43.430;23.136;2023-03-15T05:32:12;96867.72;;;3.60;93.85
46722;BME280;32455;43.430;23.136;2023-03-15T05:34:58;96864.88;;;3.93;89.82
46722;BME280;32455;43.430;23.136;2023-03-15T05:37:43;96881.69;;;4.25;85.54
46722;BME280;32455;43.430;23.136;2023-03-15T05:40:29;96880.94;;;4.43;84.09
46722;BME280;32455;43.430;23.136;2023-03-15T05:43:15;96880.84;;;4.57;82.12
46722;BME280;32455;43.430;23.136;2023-03-15T05:46:00;96871.94;;;4.69;82.41
46722;BME280;32455;43.430;23.136;2023-03-15T05:48:46;96878.19;;;4.82;80.75
46722;BME280;32455;43.430;23.136;2023-03-15T05:51:31;96871.78;;;4.89;79.31
46722;BME280;32455;43.430;23.136;2023-03-15T05:54:16;96872.91;;;5.00;79.97
46722;BME280;32455;43.430;23.136;2023-03-15T05:57:02;96875.78;;;4.98;80.77
46722;BME280;32455;43.430;23.136;2023-03-15T05:59:47;96859.75;;;5.05;79.71
46722;BME280;32455;43.430;23.136;2023-03-15T06:02:32;96857.72;;;5.25;76.27
46722;BME280;32455;43.430;23.136;2023-03-15T06:05:17;96854.25;;;5.62;75.89
46722;BME280;32455;43.430;23.136;2023-03-15T06:08:02;96831.03;;;5.81;76.18
46722;BME280;32455;43.430;23.136;2023-03-15T06:10:47;96835.41;;;5.93;75.91
46722;BME280;32455;43.430;23.136;2023-03-15T06:13:33;96834.41;;;5.58;75.36
46722;BME280;32455;43.430;23.136;2023-03-15T06:16:18;96867.06;;;5.53;80.44
46722;BME280;32455;43.430;23.136;2023-03-15T06:19:03;96864.69;;;5.45;77.20
46722;BME280;32455;43.430;23.136;2023-03-15T06:21:48;96887.03;;;5.44;80.34
46722;BME280;32455;43.430;23.136;2023-03-15T06:24:35;96882.59;;;5.74;79.28
46722;BME280;32455;43.430;23.136;2023-03-15T06:27:21;96893.88;;;6.07;77.86
46722;BME280;32455;43.430;23.136;2023-03-15T06:30:07;96894.00;;;6.30;73.89
46722;BME280;32455;43.430;23.136;2023-03-15T06:32:53;96889.53;;;6.54;71.10
46722;BME280;32455;43.430;23.136;2023-03-15T06:35:39;96898.00;;;6.63;70.02
46722;BME280;32455;43.430;23.136;2023-03-15T06:38:24;96898.50;;;6.60;69.62
46722;BME280;32455;43.430;23.136;2023-03-15T06:41:11;96902.34;;;6.75;68.96
46722;BME280;32455;43.430;23.136;2023-03-15T06:43:56;96900.63;;;7.05;67.51
46722;BME280;32455;43.430;23.136;2023-03-15T06:46:42;96892.75;;;7.21;68.16
46722;BME280;32455;43.430;23.136;2023-03-15T06:49:27;96898.31;;;7.43;68.32
46722;BME280;32455;43.430;23.136;2023-03-15T06:52:12;96900.88;;;7.50;67.60
46722;BME280;32455;43.430;23.136;2023-03-15T06:54:58;96900.19;;;7.43;67.03
46722;BME280;32455;43.430;23.136;2023-03-15T06:57:43;96894.59;;;7.44;67.56
46722;BME280;32455;43.430;23.136;2023-03-15T07:00:29;96897.84;;;7.46;67.12
46722;BME280;32455;43.430;23.136;2023-03-15T07:03:15;96885.31;;;7.47;67.58
46722;BME280;32455;43.430;23.136;2023-03-15T07:06:00;96886.47;;;7.51;68.13
46722;BME280;32455;43.430;23.136;2023-03-15T07:08:45;96893.88;;;7.72;68.23
46722;BME280;32455;43.430;23.136;2023-03-15T07:11:31;96890.72;;;7.75;67.21
46722;BME280;32455;43.430;23.136;2023-03-15T07:14:16;96864.00;;;7.75;67.19
46722;BME280;32455;43.430;23.136;2023-03-15T07:17:02;96872.94;;;7.69;68.08
46722;BME280;32455;43.430;23.136;2023-03-15T07:19:48;96874.78;;;7.81;67.95
46722;BME280;32455;43.430;23.136;2023-03-15T07:22:34;96871.22;;;7.63;68.50
46722;BME280;32455;43.430;23.136;2023-03-15T07:25:20;96864.16;;;7.97;68.61
46722;BME280;32455;43.430;23.136;2023-03-15T07:28:07;96864.50;;;8.01;68.47
46722;BME280;32455;43.430;23.136;2023-03-15T07:30:58;96865.13;;;7.80;67.38
46722;BME280;32455;43.430;23.136;2023-03-15T07:33:44;96866.44;;;7.65;68.00
46722;BME280;32455;43.430;23.136;2023-03-15T07:36:29;96865.00;;;7.74;67.28
46722;BME280;32455;43.430;23.136;2023-03-15T07:39:15;96867.63;;;7.98;65.26
46722;BME280;32455;43.430;23.136;2023-03-15T07:42:01;96851.19;;;7.77;66.59
46722;BME280;32455;43.430;23.136;2023-03-15T07:44:46;96865.44;;;7.95;66.44
46722;BME280;32455;43.430;23.136;2023-03-15T07:47:31;96861.69;;;7.96;65.96
46722;BME280;32455;43.430;23.136;2023-03-15T07:50:17;96862.28;;;7.98;65.99
46722;BME280;32455;43.430;23.136;2023-03-15T07:53:05;96872.28;;;8.02;65.81
46722;BME280;32455;43.430;23.136;2023-03-15T07:55:51;96887.06;;;8.22;66.55
46722;BME280;32455;43.430;23.136;2023-03-15T07:58:36;96879.47;;;8.31;65.03
46722;BME280;32455;43.430;23.136;2023-03-15T08:01:21;96874.28;;;8.52;65.11
46722;BME280;32455;43.430;23.136;2023-03-15T08:04:07;96861.53;;;8.43;64.36
46722;BME280;32455;43.430;23.136;2023-03-15T08:06:52;96871.44;;;8.59;65.20
46722;BME280;32455;43.430;23.136;2023-03-15T08:09:37;96868.97;;;8.69;65.45
46722;BME280;32455;43.430;23.136;2023-03-15T08:12:24;96876.13;;;9.36;63.39
46722;BME280;32455;43.430;23.136;2023-03-15T08:15:13;96855.09;;;9.67;62.24
46722;BME280;32455;43.430;23.136;2023-03-15T08:17:58;96857.47;;;9.85;61.80
46722;BME280;32455;43.430;23.136;2023-03-15T08:20:44;96860.69;;;10.09;59.91
46722;BME280;32455;43.430;23.136;2023-03-15T08:23:29;96855.66;;;9.91;58.05
46722;BME280;32455;43.430;23.136;2023-03-15T08:26:15;96856.91;;;9.83;58.26
46722;BME280;32455;43.430;23.136;2023-03-15T08:29:00;96848.16;;;9.93;56.75
46722;BME280;32455;43.430;23.136;2023-03-15T08:31:46;96854.06;;;10.17;58.57
46722;BME280;32455;43.430;23.136;2023-03-15T08:34:33;96853.66;;;10.25;56.54
46722;BME280;32455;43.430;23.136;2023-03-15T08:37:18;96847.63;;;10.18;56.04
46722;BME280;32455;43.430;23.136;2023-03-15T08:40:06;96841.31;;;10.56;53.83
46722;BME280;32455;43.430;23.136;2023-03-15T08:42:56;96855.44;;;10.73;53.20
46722;BME280;32455;43.430;23.136;2023-03-15T08:45:41;96840.47;;;10.83;51.84
46722;BME280;32455;43.430;23.136;2023-03-15T08:48:27;96847.25;;;10.90;51.58
46722;BME280;32455;43.430;23.136;2023-03-15T08:51:13;96845.28;;;10.75;51.82
46722;BME280;32455;43.430;23.136;2023-03-15T08:53:58;96847.63;;;10.67;51.05
46722;BME280;32455;43.430;23.136;2023-03-15T08:56:44;96836.50;;;10.90;50.80
46722;BME280;32455;43.430;23.136;2023-03-15T08:59:29;96854.06;;;11.03;50.49
46722;BME280;32455;43.430;23.136;2023-03-15T09:02:16;96849.53;;;11.09;50.83
46722;BME280;32455;43.430;23.136;2023-03-15T09:05:02;96850.53;;;10.97;50.15
46722;BME280;32455;43.430;23.136;2023-03-15T09:07:51;96851.44;;;10.76;50.45
46722;BME280;32455;43.430;23.136;2023-03-15T09:10:40;96855.81;;;10.87;48.85
46722;BME280;32455;43.430;23.136;2023-03-15T09:13:27;96863.56;;;11.16;50.55
46722;BME280;32455;43.430;23.136;2023-03-15T09:16:13;96858.47;;;11.14;49.41
46722;BME280;32455;43.430;23.136;2023-03-15T09:18:58;96879.44;;;11.17;49.49
46722;BME280;32455;43.430;23.136;2023-03-15T09:21:43;96871.34;;;11.12;49.25
46722;BME280;32455;43.430;23.136;2023-03-15T09:24:31;96868.13;;;11.15;48.79
46722;BME280;32455;43.430;23.136;2023-03-15T09:27:17;96870.94;;;11.31;49.87
46722;BME280;32455;43.430;23.136;2023-03-15T09:30:03;96883.09;;;11.43;50.05
46722;BME280;32455;43.430;23.136;2023-03-15T09:32:48;96878.00;;;11.42;49.35
46722;BME280;32455;43.430;23.136;2023-03-15T09:35:35;96884.16;;;11.37;51.20
46722;BME280;32455;43.430;23.136;2023-03-15T09:38:20;96871.66;;;11.21;51.56
46722;BME280;32455;43.430;23.136;2023-03-15T09:41:10;96876.34;;;10.98;52.83
46722;BME280;32455;43.430;23.136;2023-03-15T09:44:13;96875.75;;;10.91;53.96
46722;BME280;32455;43.430;23.136;2023-03-15T09:50:24;96884.06;;;10.90;55.33
46722;BME280;32455;43.430;23.136;2023-03-15T09:53:30;96880.00;;;10.87;56.02
46722;BME280;32455;43.430;23.136;2023-03-15T09:56:27;96887.53;;;10.85;55.55
46722;BME280;32455;43.430;23.136;2023-03-15T09:59:15;96883.84;;;10.37;56.82
46722;BME280;32455;43.430;23.136;2023-03-15T10:05:11;96894.94;;;10.46;57.31
46722;BME280;32455;43.430;23.136;2023-03-15T10:08:00;96896.38;;;10.53;56.45
46722;BME280;32455;43.430;23.136;2023-03-15T10:10:56;96896.97;;;10.61;56.79
46722;BME280;32455;43.430;23.136;2023-03-15T10:20:43;96911.38;;;10.49;55.79
46722;BME280;32455;43.430;23.136;2023-03-15T10:23:48;96920.44;;;10.43;55.55
46722;BME280;32455;43.430;23.136;2023-03-15T10:26:36;96909.59;;;10.33;56.26
46722;BME280;32455;43.430;23.136;2023-03-15T10:29:24;96904.69;;;10.08;56.00
46722;BME280;32455;43.430;23.136;2023-03-15T10:32:16;96900.25;;;9.97;55.69
46722;BME280;32455;43.430;23.136;2023-03-15T10:35:07;96885.34;;;10.06;57.06
46722;BME280;32455;43.430;23.136;2023-03-15T10:37:55;96905.88;;;10.17;55.55
46722;BME280;32455;43.430;23.136;2023-03-15T10:40:52;96906.16;;;10.38;55.23
46722;BME280;32455;43.430;23.136;2023-03-15T10:43:37;96883.09;;;10.20;55.40
46722;BME280;32455;43.430;23.136;2023-03-15T10:46:24;96905.28;;;10.32;55.95
46722;BME280;32455;43.430;23.136;2023-03-15T10:49:11;96904.41;;;10.26;55.86
46722;BME280;32455;43.430;23.136;2023-03-15T10:51:58;96896.97;;;10.12;56.37
46722;BME280;32455;43.430;23.136;2023-03-15T10:54:43;96900.47;;;10.12;55.68
46722;BME280;32455;43.430;23.136;2023-03-15T10:57:34;96904.06;;;10.23;55.83
46722;BME280;32455;43.430;23.136;2023-03-15T11:00:29;96900.97;;;10.31;55.98
46722;BME280;32455;43.430;23.136;2023-03-15T11:03:21;96901.69;;;10.48;55.36
46722;BME280;32455;43.430;23.136;2023-03-15T11:06:20;96893.16;;;10.57;54.12
46722;BME280;32455;43.430;23.136;2023-03-15T11:09:17;96896.03;;;10.45;56.82
46722;BME280;32455;43.430;23.136;2023-03-15T11:12:08;96888.16;;;10.38;56.24
46722;BME280;32455;43.430;23.136;2023-03-15T11:15:14;96883.53;;;10.61;53.39
46722;BME280;32455;43.430;23.136;2023-03-15T11:17:59;96873.88;;;10.60;54.25
46722;BME280;32455;43.430;23.136;2023-03-15T11:20:45;96880.94;;;10.44;56.27
46722;BME280;32455;43.430;23.136;2023-03-15T11:23:35;96873.75;;;10.76;54.40
46722;BME280;32455;43.430;23.136;2023-03-15T11:26:22;96868.41;;;10.49;54.91
46722;BME280;32455;43.430;23.136;2023-03-15T11:29:35;96871.13;;;10.55;52.70
46722;BME280;32455;43.430;23.136;2023-03-15T11:32:24;96882.44;;;10.30;52.84
46722;BME280;32455;43.430;23.136;2023-03-15T11:35:25;96870.94;;;10.34;53.45
46722;BME280;32455;43.430;23.136;2023-03-15T11:38:32;96863.38;;;10.31;54.65
46722;BME280;32455;43.430;23.136;2023-03-15T11:41:38;96865.31;;;10.63;52.24
46722;BME280;32455;43.430;23.136;2023-03-15T11:47:39;96870.72;;;10.68;52.99
46722;BME280;32455;43.430;23.136;2023-03-15T11:50:26;96879.31;;;10.70;53.08
46722;BME280;32455;43.430;23.136;2023-03-15T11:53:15;96880.44;;;10.74;53.38
46722;BME280;32455;43.430;23.136;2023-03-15T11:56:25;96870.97;;;10.66;53.25
46722;BME280;32455;43.430;23.136;2023-03-15T12:08:51;96856.25;;;10.42;51.18
46722;BME280;32455;43.430;23.136;2023-03-15T12:11:38;96856.81;;;10.49;51.60
46722;BME280;32455;43.430;23.136;2023-03-15T12:14:32;96857.84;;;10.43;52.19
46722;BME280;32455;43.430;23.136;2023-03-15T12:32:06;96867.47;;;10.39;52.35
46722;BME280;32455;43.430;23.136;2023-03-15T12:34:54;96861.34;;;10.43;52.33
46722;BME280;32455;43.430;23.136;2023-03-15T12:37:45;96866.53;;;10.50;50.74
46722;BME280;32455;43.430;23.136;2023-03-15T12:40:59;96863.81;;;10.45;52.18
46722;BME280;32455;43.430;23.136;2023-03-15T12:43:45;96857.69;;;10.27;52.34
46722;BME280;32455;43.430;23.136;2023-03-15T12:49:42;96871.94;;;10.55;51.90
46722;BME280;32455;43.430;23.136;2023-03-15T12:52:38;96867.72;;;10.64;52.38
46722;BME280;32455;43.430;23.136;2023-03-15T12:55:31;96870.16;;;10.66;50.59
46722;BME280;32455;43.430;23.136;2023-03-15T12:58:19;96872.97;;;10.81;51.27
46722;BME280;32455;43.430;23.136;2023-03-15T13:01:06;96869.38;;;10.70;50.77
46722;BME280;32455;43.430;23.136;2023-03-15T13:03:57;96861.16;;;10.82;51.69
46722;BME280;32455;43.430;23.136;2023-03-15T13:07:03;96854.91;;;11.09;50.98
46722;BME280;32455;43.430;23.136;2023-03-15T13:10:55;96866.41;;;10.99;50.10
46722;BME280;32455;43.430;23.136;2023-03-15T13:22:21;96856.63;;;10.56;49.96
46722;BME280;32455;43.430;23.136;2023-03-15T13:25:24;96858.06;;;10.63;51.63
46722;BME280;32455;43.430;23.136;2023-03-15T13:28:22;96860.91;;;10.84;50.43
46722;BME280;32455;43.430;23.136;2023-03-15T13:31:16;96863.19;;;10.97;49.76
46722;BME280;32455;43.430;23.136;2023-03-15T13:34:19;96863.31;;;10.80;50.32
46722;BME280;32455;43.430;23.136;2023-03-15T13:37:15;96869.16;;;10.72;51.07
46722;BME280;32455;43.430;23.136;2023-03-15T13:40:07;96861.47;;;10.86;50.85
46722;BME280;32455;43.430;23.136;2023-03-15T13:42:59;96863.56;;;10.51;50.50
46722;BME280;32455;43.430;23.136;2023-03-15T13:45:46;96863.75;;;10.18;51.57
46722;BME280;32455;43.430;23.136;2023-03-15T13:48:33;96862.91;;;10.39;51.46
46722;BME280;32455;43.430;23.136;2023-03-15T13:51:36;96862.81;;;10.29;50.71
46722;BME280;32455;43.430;23.136;2023-03-15T13:54:26;96850.75;;;10.32;51.91
46722;BME280;32455;43.430;23.136;2023-03-15T13:57:17;96854.22;;;10.54;50.51
46722;BME280;32455;43.430;23.136;2023-03-15T14:00:08;96843.00;;;10.62;50.60
46722;BME280;32455;43.430;23.136;2023-03-15T14:02:58;96852.09;;;10.61;50.00
46722;BME280;32455;43.430;23.136;2023-03-15T14:05:46;96854.13;;;10.76;49.47
46722;BME280;32455;43.430;23.136;2023-03-15T14:08:35;96857.78;;;10.65;49.62
46722;BME280;32455;43.430;23.136;2023-03-15T14:14:21;96860.22;;;10.39;51.60
46722;BME280;32455;43.430;23.136;2023-03-15T14:20:14;96854.56;;;10.36;51.01
46722;BME280;32455;43.430;23.136;2023-03-15T14:23:02;96837.50;;;9.98;51.98
46722;BME280;32455;43.430;23.136;2023-03-15T14:26:09;96848.38;;;10.13;52.16
46722;BME280;32455;43.430;23.136;2023-03-15T14:29:03;96852.91;;;10.08;52.75
46722;BME280;32455;43.430;23.136;2023-03-15T14:31:52;96845.47;;;9.93;54.65
46722;BME280;32455;43.430;23.136;2023-03-15T14:34:45;96849.28;;;9.97;52.88
46722;BME280;32455;43.430;23.136;2023-03-15T14:37:41;96848.06;;;10.10;52.86
46722;BME280;32455;43.430;23.136;2023-03-15T14:40:32;96828.75;;;10.08;53.67
46722;BME280;32455;43.430;23.136;2023-03-15T14:43:23;96844.34;;;10.33;53.58
46722;BME280;32455;43.430;23.136;2023-03-15T14:46:08;96840.09;;;10.37;52.98
46722;BME280;32455;43.430;23.136;2023-03-15T14:48:53;96841.50;;;10.22;52.98
46722;BME280;32455;43.430;23.136;2023-03-15T14:51:39;96834.59;;;10.26;52.95
46722;BME280;32455;43.430;23.136;2023-03-15T14:54:24;96849.44;;;10.34;52.95
46722;BME280;32455;43.430;23.136;2023-03-15T14:57:09;96841.44;;;10.39;53.28
46722;BME280;32455;43.430;23.136;2023-03-15T14:59:54;96837.06;;;10.28;53.31
46722;BME280;32455;43.430;23.136;2023-03-15T15:02:40;96842.66;;;10.26;53.76
46722;BME280;32455;43.430;23.136;2023-03-15T15:05:29;96852.25;;;10.22;53.18
46722;BME280;32455;43.430;23.136;2023-03-15T15:08:17;96846.41;;;10.03;54.57
46722;BME280;32455;43.430;23.136;2023-03-15T15:11:06;96849.31;;;10.02;55.25
46722;BME280;32455;43.430;23.136;2023-03-15T15:13:53;96852.41;;;10.11;55.00
46722;BME280;32455;43.430;23.136;2023-03-15T15:16:39;96855.69;;;10.18;54.43
46722;BME280;32455;43.430;23.136;2023-03-15T15:19:24;96855.75;;;10.01;54.56
46722;BME280;32455;43.430;23.136;2023-03-15T15:22:10;96867.28;;;10.23;54.12
46722;BME280;32455;43.430;23.136;2023-03-15T15:24:55;96867.31;;;10.01;54.19
46722;BME280;32455;43.430;23.136;2023-03-15T15:27:42;96858.84;;;9.88;55.04
46722;BME280;32455;43.430;23.136;2023-03-15T15:30:27;96850.22;;;10.08;54.59
46722;BME280;32455;43.430;23.136;2023-03-15T15:33:13;96866.00;;;10.04;55.01
46722;BME280;32455;43.430;23.136;2023-03-15T15:36:00;96855.28;;;9.82;54.83
46722;BME280;32455;43.430;23.136;2023-03-15T15:38:45;96865.59;;;9.90;55.62
46722;BME280;32455;43.430;23.136;2023-03-15T15:41:30;96870.16;;;9.90;55.53
46722;BME280;32455;43.430;23.136;2023-03-15T15:44:18;96868.00;;;9.92;55.66
46722;BME280;32455;43.430;23.136;2023-03-15T15:47:05;96866.66;;;9.89;55.52
46722;BME280;32455;43.430;23.136;2023-03-15T15:49:50;96877.50;;;9.77;56.16
46722;BME280;32455;43.430;23.136;2023-03-15T15:52:37;96886.47;;;9.88;55.77
46722;BME280;32455;43.430;23.136;2023-03-15T15:55:27;96888.97;;;9.95;56.31